Linton, ND

1:48 PM CST on December 05, 2016 (GMT -0600)
Linton Municipal Airport | | Change Station
Active Advisory: Winter Weather Advisory Active Notice: Public Information Statement

Elev 1778 ft 46.22 °N, 100.25 °W | Updated 33 minutes ago

Snow
Snow
30 °F
Feels Like 19 °F
N
15
Wind Variable Wind from NW

Today
High -- | Low -- °F
--% Chance of Precip.
Yesterday
High -- | Low -- °F
Precip. -- in
Pressure 29.55 in
Visibility 0.5 miles
Clouds Mostly Cloudy 200 ft
Overcast 900 ft
Windchill 19 °F
Dew Point 30 °F
Humidity 100%
Rainfall 0.75 in
Snow Depth Not available.
8:08 AM 4:55 PM
Waxing Crescent, 34% visible
METAR K7L2 051915Z AUTO 31013KT 1/2SM SN BKN002 OVC009 M01/M01 A2955 RMK AO2 P0075
Pressure 29.55 in
Visibility 0.5 miles
Clouds Mostly Cloudy 200 ft
Overcast 900 ft
Windchill 19 °F
Dew Point 30 °F
Humidity 100%
Rainfall 0.75 in
Snow Depth Not available.
8:08 AM 4:55 PM
Waxing Crescent, 34% visible
METAR K7L2 051915Z AUTO 31013KT 1/2SM SN BKN002 OVC009 M01/M01 A2955 RMK AO2 P0075

10-Day Weather Forecast

Almanac

Astronomy

Dec. 05, 2016 Rise Set
Actual Time
Civil Twilight
Nautical Twilight
Astronomical Twilight
Moon
Length of Visible Light
Length of Day
Tomorrow will be .
, % of the Moon is Illuminated

Today's Extremes

State Highs State Lows

Community

WunderPhotos

Upload Photos

1,955,852 photos uploaded!

WunderBlog® & News

Nearby

Air Quality

  Air Quality AQ Index Pollutant
Not available.

Snow Depth

Station Depth Elevation

Earthquake Activity

City Distance Mag. Time & Date
Minimum magnitude displayed is 2.5.

Coastal Water Temperatures

Place Temperature

Stations

Nearby Weather Stations

Station Location Temp. Windchill Dew Point Humidity Wind Precip. Elev Updated Type
                   

Watches & Warnings

Winter Weather Advisory
Issued: 11:01 AM MST Dec. 5, 2016 – National Weather Service

... Winter Weather Advisory remains in effect until noon CST
/11 am MST/ Tuesday...

* timing... noon Monday through Tuesday morning.

* Snowfall... snowfall accumulations between 2 and 5 inches.

* Blowing snow... reduced visibility in blowing and drifting snow.

* Main impact... snow and blowing snow will make travel hazardous.

Precautionary/preparedness actions...

A Winter Weather Advisory for snow means that periods of snow
will cause primarily travel difficulties. Be prepared for snow
covered roads and limited visibilities... and use caution while
driving.